createdAt,value
2019-03-21T00:01:24.110Z,47.30
2019-03-21T00:03:55.861Z,45.07
2019-03-21T00:06:24.403Z,47.10
2019-03-21T00:08:53.071Z,49.10
2019-03-21T00:11:56.395Z,42.13
2019-03-21T00:14:44.326Z,45.17
2019-03-21T00:17:24.812Z,47.37
2019-03-21T00:19:53.491Z,50.43
2019-03-21T00:22:22.370Z,45.23
2019-03-21T00:24:50.917Z,54.37
2019-03-21T00:27:25.714Z,44.43
2019-03-21T00:29:50.411Z,44.80
2019-03-21T00:32:20.434Z,45.77
2019-03-21T00:34:49.050Z,47.47
2019-03-21T00:37:17.868Z,47.00
2019-03-21T00:39:46.722Z,42.60
2019-03-21T00:42:19.823Z,42.30
2019-03-21T00:44:45.605Z,39.37
2019-03-21T00:47:14.422Z,46.43
2019-03-21T00:49:43.048Z,48.40
2019-03-21T00:52:11.669Z,44.27
2019-03-21T00:54:40.133Z,54.27
2019-03-21T00:57:08.679Z,47.03
2019-03-21T00:59:37.283Z,49.90
2019-03-21T01:02:05.979Z,49.63
2019-03-21T01:04:34.603Z,49.13
2019-03-21T01:07:03.169Z,51.43
2019-03-21T01:09:31.871Z,48.93
2019-03-21T01:12:00.422Z,47.20
2019-03-21T01:14:30.401Z,55.53
2019-03-21T01:16:59.041Z,47.67
2019-03-21T01:19:27.627Z,53.03
2019-03-21T01:21:58.324Z,49.17
2019-03-21T01:24:26.619Z,47.73
2019-03-21T01:26:59.374Z,50.73
2019-03-21T01:29:27.948Z,57.67
2019-03-21T01:31:56.568Z,53.90
2019-03-21T01:34:25.031Z,46.00
2019-03-21T01:36:53.645Z,49.27
2019-03-21T01:39:22.260Z,53.03
2019-03-21T01:41:51.586Z,50.23
2019-03-21T01:44:20.129Z,48.57
2019-03-21T01:46:48.791Z,48.40
2019-03-21T01:49:17.410Z,45.90
2019-03-21T01:51:46.065Z,49.20
2019-03-21T01:54:14.646Z,44.57
2019-03-21T01:56:43.197Z,50.67
2019-03-21T01:59:11.815Z,48.93
2019-03-21T02:01:40.565Z,45.43
2019-03-21T02:04:09.048Z,42.00
2019-03-21T02:06:37.607Z,47.97
2019-03-21T02:09:08.401Z,42.37
2019-03-21T02:11:38.762Z,52.27
2019-03-21T02:14:07.478Z,45.37
2019-03-21T02:16:36.027Z,51.73
2019-03-21T02:19:04.743Z,38.97
2019-03-21T02:21:33.377Z,45.90
2019-03-21T02:24:02.088Z,45.13
2019-03-21T02:26:30.701Z,48.57
2019-03-21T02:28:59.293Z,49.03
2019-03-21T02:31:28.128Z,39.70
2019-03-21T02:33:58.593Z,41.83
2019-03-21T02:36:27.143Z,39.30
2019-03-21T02:38:55.703Z,39.07
2019-03-21T02:41:25.799Z,44.53
2019-03-21T02:43:54.660Z,41.33
2019-03-21T02:46:23.296Z,42.20
2019-03-21T02:48:51.964Z,45.97
2019-03-21T02:51:20.632Z,52.67
2019-03-21T02:53:49.316Z,42.87
2019-03-21T02:56:23.966Z,47.00
2019-03-21T02:58:52.562Z,56.27
2019-03-21T03:01:21.190Z,52.40
2019-03-21T03:03:49.734Z,46.50
2019-03-21T03:06:18.391Z,45.00
2019-03-21T03:08:47.039Z,50.80
2019-03-21T03:11:20.636Z,47.93
2019-03-21T03:13:50.948Z,49.73
2019-03-21T03:16:21.393Z,45.47
2019-03-21T03:18:51.585Z,47.80
2019-03-21T03:21:20.353Z,52.10
2019-03-21T03:23:48.979Z,42.43
2019-03-21T03:26:17.549Z,48.20
2019-03-21T03:28:47.862Z,51.77
2019-03-21T03:31:16.531Z,44.50
2019-03-21T03:33:45.570Z,42.90
2019-03-21T03:36:16.058Z,39.00
2019-03-21T03:38:44.673Z,44.83
2019-03-21T03:41:16.264Z,42.17
2019-03-21T03:43:44.885Z,37.40
2019-03-21T03:46:13.425Z,51.07
2019-03-21T03:48:42.054Z,47.90
2019-03-21T03:51:10.704Z,46.90
2019-03-21T03:53:42.308Z,39.27
2019-03-21T03:56:09.792Z,43.13
2019-03-21T03:58:47.196Z,39.23
2019-03-21T04:01:15.729Z,48.73
2019-03-21T04:03:44.413Z,37.63
2019-03-21T04:06:13.029Z,34.47
2019-03-21T04:08:41.648Z,38.23
2019-03-21T04:11:10.337Z,37.73
2019-03-21T04:13:39.040Z,37.33
2019-03-21T04:16:07.651Z,36.33
2019-03-21T04:18:36.129Z,36.57
2019-03-21T04:21:13.428Z,38.77
2019-03-21T04:23:42.049Z,37.97
2019-03-21T04:26:32.115Z,42.37
2019-03-21T04:29:00.585Z,39.47
2019-03-21T04:31:29.225Z,38.67
2019-03-21T04:34:00.665Z,34.47
2019-03-21T04:36:29.364Z,41.60
2019-03-21T04:38:58.017Z,38.77
2019-03-21T04:41:26.559Z,43.40
2019-03-21T04:43:55.206Z,46.70
2019-03-21T04:46:26.645Z,36.27
2019-03-21T04:48:55.327Z,47.70
2019-03-21T04:51:24.013Z,47.17
2019-03-21T04:53:53.566Z,42.17
2019-03-21T04:56:22.348Z,48.57
2019-03-21T04:58:50.915Z,42.20
2019-03-21T05:01:19.548Z,47.23
2019-03-21T05:03:48.185Z,40.30
2019-03-21T05:06:16.796Z,44.47
2019-03-21T05:08:45.485Z,44.87
2019-03-21T05:11:14.309Z,38.37
2019-03-21T05:13:42.791Z,46.77
2019-03-21T05:16:14.918Z,45.50
2019-03-21T05:18:44.621Z,46.60
2019-03-21T05:21:16.139Z,42.27
2019-03-21T05:23:44.684Z,44.07
2019-03-21T05:26:13.486Z,46.83
2019-03-21T05:28:42.124Z,41.03
2019-03-21T05:31:17.052Z,40.30
2019-03-21T05:33:45.691Z,43.57
2019-03-21T05:36:14.235Z,42.17
2019-03-21T05:38:42.778Z,40.90
2019-03-21T05:41:11.393Z,52.63
2019-03-21T05:43:51.845Z,52.60
2019-03-21T05:46:26.491Z,46.47
2019-03-21T05:48:51.214Z,45.40
2019-03-21T05:51:19.760Z,54.03
2019-03-21T05:53:48.414Z,53.83
2019-03-21T05:56:16.955Z,48.13
2019-03-21T05:58:48.593Z,43.80
2019-03-21T06:01:17.131Z,42.83
2019-03-21T06:03:52.677Z,44.13
2019-03-21T06:06:45.140Z,47.10
2019-03-21T06:09:16.700Z,54.20
2019-03-21T06:11:48.500Z,48.87
2019-03-21T06:14:17.113Z,47.43
2019-03-21T06:16:45.732Z,44.50
2019-03-21T06:19:20.165Z,52.97
2019-03-21T06:21:57.659Z,47.40
2019-03-21T06:24:38.998Z,45.70
2019-03-21T06:27:19.373Z,47.30
2019-03-21T06:29:47.943Z,51.80
2019-03-21T06:32:16.487Z,46.20
2019-03-21T06:34:45.499Z,45.47
2019-03-21T06:37:14.127Z,49.60
2019-03-21T06:39:42.666Z,49.83
2019-03-21T06:42:11.283Z,59.50
2019-03-21T06:44:39.878Z,61.17
2019-03-21T06:47:08.509Z,73.17
2019-03-21T06:49:37.228Z,67.10
2019-03-21T06:52:05.860Z,74.70
2019-03-21T06:54:34.543Z,89.37
2019-03-21T06:57:03.096Z,79.90
2019-03-21T06:59:31.675Z,83.80
2019-03-21T07:02:00.213Z,73.57
2019-03-21T07:04:28.760Z,68.50
2019-03-21T07:07:07.548Z,66.70
2019-03-21T07:09:29.199Z,71.07
2019-03-21T07:11:59.433Z,54.83
2019-03-21T07:14:28.041Z,56.03
2019-03-21T07:17:00.742Z,51.93
2019-03-21T07:19:26.852Z,65.73
2019-03-21T07:21:55.510Z,66.97
2019-03-21T07:24:24.217Z,54.90
2019-03-21T07:26:52.842Z,48.63
2019-03-21T07:29:21.407Z,46.73
2019-03-21T07:31:50.083Z,44.05
2019-03-21T07:34:18.623Z,51.08
2019-03-21T07:36:47.261Z,48.17
2019-03-21T07:39:15.783Z,45.75
2019-03-21T07:41:44.420Z,48.13
2019-03-21T07:44:13.050Z,47.80
2019-03-21T07:46:41.630Z,49.35
2019-03-21T07:49:10.196Z,50.92
2019-03-21T07:51:38.802Z,48.20
2019-03-21T07:54:07.457Z,64.53
2019-03-21T07:56:35.923Z,52.58
2019-03-21T07:59:04.562Z,51.45
2019-03-21T08:01:33.210Z,45.25
2019-03-21T08:04:03.199Z,48.68
2019-03-21T08:06:31.947Z,45.65
2019-03-21T08:09:00.416Z,38.28
2019-03-21T08:11:29.031Z,40.83
2019-03-21T08:13:57.613Z,34.58
2019-03-21T08:16:26.234Z,33.42
2019-03-21T08:18:54.833Z,34.10
2019-03-21T08:21:23.463Z,33.78
2019-03-21T08:23:52.067Z,34.88
2019-03-21T08:26:20.687Z,37.70
2019-03-21T08:28:49.243Z,36.33
2019-03-21T08:31:17.800Z,37.35
2019-03-21T08:33:46.412Z,32.25
2019-03-21T08:36:15.062Z,28.70
2019-03-21T08:38:43.685Z,35.03
2019-03-21T08:41:12.388Z,33.35
2019-03-21T08:43:40.915Z,31.97
2019-03-21T08:46:09.574Z,30.10
2019-03-21T08:48:38.246Z,29.67
2019-03-21T08:51:08.529Z,27.62
2019-03-21T08:53:37.129Z,36.03
2019-03-21T08:56:05.751Z,29.42
2019-03-21T08:58:34.357Z,25.75
2019-03-21T09:01:03.022Z,25.37
2019-03-21T09:03:31.551Z,23.95
2019-03-21T09:06:00.165Z,24.30
2019-03-21T09:08:28.723Z,29.72
2019-03-21T09:10:57.201Z,24.43
2019-03-21T09:13:25.823Z,27.30
2019-03-21T09:15:54.448Z,23.27
2019-03-21T09:18:22.933Z,25.23
2019-03-21T09:20:51.569Z,25.08
2019-03-21T09:23:20.191Z,26.40
2019-03-21T09:25:51.218Z,20.48
2019-03-21T09:28:19.169Z,21.95
2019-03-21T09:30:50.410Z,22.40
2019-03-21T09:33:17.987Z,20.08
2019-03-21T09:35:46.597Z,23.27
2019-03-21T09:38:15.178Z,22.65
2019-03-21T09:40:43.809Z,22.85
2019-03-21T09:43:13.500Z,22.87
2019-03-21T09:45:42.135Z,19.75
2019-03-21T09:48:10.615Z,20.10
2019-03-21T09:50:39.159Z,23.70
2019-03-21T09:53:07.929Z,18.27
2019-03-21T09:55:36.404Z,23.73
2019-03-21T09:58:05.053Z,16.07
2019-03-21T10:00:36.124Z,19.60
2019-03-21T10:03:06.310Z,18.32
2019-03-21T10:05:35.236Z,13.45
2019-03-21T10:08:04.350Z,11.60
2019-03-21T10:10:35.165Z,11.25
2019-03-21T10:13:04.509Z,12.18
2019-03-21T10:15:33.933Z,17.50
2019-03-21T10:18:02.574Z,15.13
2019-03-21T10:20:31.182Z,13.22
2019-03-21T10:22:59.803Z,17.77
2019-03-21T10:25:28.344Z,11.18
2019-03-21T10:27:56.990Z,12.60
2019-03-21T10:30:36.373Z,20.00
2019-03-21T10:33:06.790Z,13.20
2019-03-21T10:35:35.407Z,12.63
2019-03-21T10:38:04.826Z,16.77
2019-03-21T10:40:33.492Z,17.27
2019-03-21T10:43:02.493Z,18.75
2019-03-21T10:45:31.065Z,11.43
2019-03-21T10:47:59.783Z,12.82
2019-03-21T10:50:33.523Z,15.18
2019-03-21T10:53:02.137Z,13.90
2019-03-21T10:55:30.732Z,11.38
2019-03-21T10:57:59.417Z,13.18
2019-03-21T11:00:28.185Z,12.45
2019-03-21T11:02:56.786Z,9.25
2019-03-21T11:05:25.530Z,10.83
2019-03-21T11:07:57.133Z,10.78
2019-03-21T11:10:25.821Z,14.13
2019-03-21T11:12:54.470Z,11.28
2019-03-21T11:15:23.107Z,13.50
2019-03-21T11:17:52.018Z,12.37
2019-03-21T11:20:44.665Z,14.58
2019-03-21T11:23:14.697Z,16.10
2019-03-21T11:25:43.330Z,14.00
2019-03-21T11:28:11.945Z,10.55
2019-03-21T11:30:43.924Z,13.88
2019-03-21T11:33:12.552Z,16.90
2019-03-21T11:35:41.165Z,14.95
2019-03-21T11:38:09.882Z,15.88
2019-03-21T11:40:41.590Z,13.62
2019-03-21T11:43:10.859Z,17.87
2019-03-21T11:45:39.383Z,15.68
2019-03-21T11:48:08.043Z,13.90
2019-03-21T11:50:36.605Z,16.77
2019-03-21T11:53:05.306Z,15.30
2019-03-21T11:55:33.950Z,13.25
2019-03-21T11:58:02.479Z,13.93
2019-03-21T12:00:43.190Z,17.50
2019-03-21T12:03:04.138Z,15.18
2019-03-21T12:05:31.842Z,13.78
2019-03-21T12:08:00.452Z,13.95
2019-03-21T12:10:29.007Z,14.00
2019-03-21T12:12:57.638Z,16.75
2019-03-21T12:15:26.261Z,13.85
2019-03-21T12:17:54.799Z,15.93
2019-03-21T12:20:26.327Z,14.83
2019-03-21T12:22:54.805Z,13.65
2019-03-21T12:25:23.424Z,13.72
2019-03-21T12:27:51.983Z,15.90
2019-03-21T12:30:29.338Z,16.20
2019-03-21T12:32:57.877Z,14.95
2019-03-21T12:35:26.513Z,12.55
2019-03-21T12:37:57.234Z,13.35
2019-03-21T12:40:25.868Z,13.40
2019-03-21T12:42:54.418Z,11.95
2019-03-21T12:45:23.020Z,14.23
2019-03-21T12:47:51.644Z,12.25
2019-03-21T12:50:20.267Z,15.83
2019-03-21T12:52:48.873Z,13.48
2019-03-21T12:55:17.490Z,33.23
2019-03-21T12:57:46.167Z,26.17
2019-03-21T13:00:15.824Z,15.78
2019-03-21T13:02:44.370Z,19.65
2019-03-21T13:05:18.515Z,24.23
2019-03-21T13:07:47.119Z,18.32
2019-03-21T13:10:15.697Z,18.00
2019-03-21T13:12:44.261Z,14.33
2019-03-21T13:15:13.180Z,24.37
2019-03-21T13:17:41.713Z,17.37
2019-03-21T13:20:10.446Z,17.20
2019-03-21T13:22:38.919Z,19.50
2019-03-21T13:25:07.772Z,15.35
2019-03-21T13:27:36.329Z,13.83
2019-03-21T13:30:07.254Z,15.45
2019-03-21T13:32:35.910Z,14.58
2019-03-21T13:35:06.548Z,13.60
2019-03-21T13:37:35.183Z,14.23
2019-03-21T13:40:05.430Z,15.63
2019-03-21T13:42:34.040Z,15.23
2019-03-21T13:45:02.617Z,15.32
2019-03-21T13:47:31.220Z,17.67
2019-03-21T13:49:59.690Z,16.65
2019-03-21T13:52:28.303Z,17.30
2019-03-21T13:54:58.335Z,23.62
2019-03-21T13:57:26.976Z,16.42
2019-03-21T13:59:55.511Z,24.90
2019-03-21T14:02:24.172Z,16.12
2019-03-21T14:04:52.776Z,10.08
2019-03-21T14:07:21.379Z,12.82
2019-03-21T14:09:49.912Z,12.30
2019-03-21T14:12:18.465Z,10.13
2019-03-21T14:14:47.038Z,10.23
2019-03-21T14:17:21.874Z,11.08
2019-03-21T14:19:46.278Z,9.95
2019-03-21T14:22:14.893Z,14.00
2019-03-21T14:24:43.608Z,12.30
2019-03-21T14:27:12.219Z,16.57
2019-03-21T14:29:40.683Z,11.35
2019-03-21T14:32:09.292Z,15.55
2019-03-21T14:34:37.894Z,11.30
2019-03-21T14:37:06.504Z,18.35
2019-03-21T14:39:35.154Z,10.93
2019-03-21T14:42:03.687Z,12.28
2019-03-21T14:44:32.350Z,14.58
2019-03-21T14:47:00.848Z,13.93
2019-03-21T14:49:29.394Z,12.60
2019-03-21T14:51:58.012Z,15.90
2019-03-21T14:54:26.474Z,15.25
2019-03-21T14:56:55.087Z,15.60
2019-03-21T14:59:23.628Z,16.20
2019-03-21T15:01:52.173Z,17.55
2019-03-21T15:04:20.735Z,16.48
2019-03-21T15:06:49.336Z,14.10
2019-03-21T15:09:17.848Z,18.32
2019-03-21T15:11:46.487Z,13.75
2019-03-21T15:14:15.107Z,16.75
2019-03-21T15:16:43.627Z,13.98
2019-03-21T15:19:12.193Z,18.40
2019-03-21T15:21:40.783Z,16.07
2019-03-21T15:24:09.387Z,15.20
2019-03-21T15:26:37.924Z,18.35
2019-03-21T15:29:06.458Z,13.53
2019-03-21T15:31:35.102Z,15.45
2019-03-21T15:34:03.738Z,13.72
2019-03-21T15:36:32.340Z,12.98
2019-03-21T15:39:00.976Z,12.85
2019-03-21T15:41:29.575Z,14.73
2019-03-21T15:43:58.186Z,13.48
2019-03-21T15:46:26.734Z,12.10
2019-03-21T15:48:58.387Z,13.95
2019-03-21T15:51:26.961Z,11.65
2019-03-21T15:53:56.750Z,11.40
2019-03-21T15:56:25.572Z,11.90
2019-03-21T15:58:54.106Z,12.68
2019-03-21T16:01:22.678Z,11.03
2019-03-21T16:03:51.290Z,14.73
2019-03-21T16:06:19.839Z,11.70
2019-03-21T16:08:48.370Z,12.95
2019-03-21T16:11:16.873Z,11.95
2019-03-21T16:13:48.112Z,15.08
2019-03-21T16:16:16.572Z,13.25
2019-03-21T16:18:45.177Z,11.30
2019-03-21T16:21:13.791Z,13.48
2019-03-21T16:23:42.328Z,14.28
2019-03-21T16:26:10.949Z,14.03
2019-03-21T16:28:39.491Z,18.67
2019-03-21T16:31:08.023Z,16.23
2019-03-21T16:33:36.494Z,23.92
2019-03-21T16:36:05.271Z,13.10
2019-03-21T16:38:33.818Z,16.75
2019-03-21T16:41:02.347Z,18.25
2019-03-21T16:43:30.956Z,24.75
2019-03-21T16:45:59.498Z,23.40
2019-03-21T16:48:28.094Z,26.30
2019-03-21T16:50:56.761Z,28.50
2019-03-21T16:53:26.961Z,23.70
2019-03-21T16:55:55.543Z,21.77
2019-03-21T16:58:24.138Z,20.00
2019-03-21T17:00:52.657Z,22.27
2019-03-21T17:03:21.197Z,21.93
2019-03-21T17:05:49.796Z,26.23
2019-03-21T17:08:18.300Z,29.67
2019-03-21T17:10:48.573Z,39.38
2019-03-21T17:13:18.245Z,30.77
2019-03-21T17:15:47.040Z,27.50
2019-03-21T17:18:15.580Z,32.53
2019-03-21T17:20:44.258Z,28.02
2019-03-21T17:23:12.910Z,34.80
2019-03-21T17:25:41.521Z,30.08
2019-03-21T17:28:10.126Z,25.43
2019-03-21T17:30:38.695Z,30.92
2019-03-21T17:33:07.330Z,37.88
2019-03-21T17:35:35.872Z,36.13
2019-03-21T17:38:05.542Z,36.88
2019-03-21T17:40:34.028Z,34.67
2019-03-21T17:43:02.671Z,26.40
2019-03-21T17:45:31.220Z,24.90
2019-03-21T17:47:59.743Z,25.55
2019-03-21T17:50:28.357Z,23.35
2019-03-21T17:52:56.926Z,21.48
2019-03-21T17:55:25.557Z,42.27
2019-03-21T17:57:54.094Z,47.88
2019-03-21T18:00:28.273Z,29.52
2019-03-21T18:02:56.830Z,68.85
2019-03-21T18:05:25.952Z,105.07
2019-03-21T18:07:54.497Z,47.35
2019-03-21T18:10:33.880Z,90.32
2019-03-21T18:13:02.542Z,33.90
2019-03-21T18:15:31.164Z,36.90
2019-03-21T18:18:00.120Z,24.43
2019-03-21T18:20:28.723Z,57.10
2019-03-21T18:22:57.369Z,37.48
2019-03-21T18:25:25.972Z,32.42
2019-03-21T18:27:54.534Z,39.98
2019-03-21T18:30:27.260Z,48.80
2019-03-21T18:32:55.943Z,43.83
2019-03-21T18:35:24.556Z,34.75
2019-03-21T18:37:56.313Z,65.80
2019-03-21T18:40:27.684Z,47.08
2019-03-21T18:42:57.265Z,59.45
2019-03-21T18:45:25.670Z,54.03
2019-03-21T18:47:54.275Z,49.77
2019-03-21T18:50:22.926Z,50.17
2019-03-21T18:52:51.534Z,60.78
2019-03-21T18:55:20.148Z,54.65
2019-03-21T18:57:48.805Z,64.50
2019-03-21T19:00:19.514Z,146.02
2019-03-21T19:02:48.136Z,112.85
2019-03-21T19:05:16.743Z,85.50
2019-03-21T19:07:45.351Z,78.87
2019-03-21T19:10:15.164Z,92.42
2019-03-21T19:12:43.868Z,76.87
2019-03-21T19:15:16.823Z,75.05
2019-03-21T19:17:45.831Z,86.85
2019-03-21T19:20:18.522Z,91.00
2019-03-21T19:22:47.944Z,109.05
2019-03-21T19:25:19.654Z,136.30
2019-03-21T19:27:48.114Z,123.25
2019-03-21T19:30:21.567Z,105.92
2019-03-21T19:32:50.181Z,91.85
2019-03-21T19:35:18.849Z,93.87
2019-03-21T19:37:47.552Z,97.80
2019-03-21T19:40:20.296Z,96.53
2019-03-21T19:42:48.884Z,90.30
2019-03-21T19:45:19.487Z,90.97
2019-03-21T19:47:48.091Z,88.42
2019-03-21T19:50:20.528Z,91.82
2019-03-21T19:52:49.131Z,88.82
2019-03-21T19:55:30.168Z,70.87
2019-03-21T19:57:49.565Z,31.82
2019-03-21T20:00:22.353Z,27.95
2019-03-21T20:02:51.594Z,23.05
2019-03-21T20:05:20.240Z,25.37
2019-03-21T20:07:48.849Z,25.02
2019-03-21T20:10:31.263Z,22.15
2019-03-21T20:12:57.468Z,20.85
2019-03-21T20:15:25.995Z,20.05
2019-03-21T20:17:54.583Z,16.55
2019-03-21T20:20:23.119Z,20.48
2019-03-21T20:22:51.765Z,19.30
2019-03-21T20:25:20.387Z,19.90
2019-03-21T20:27:49.060Z,15.45
2019-03-21T20:30:19.795Z,22.82
2019-03-21T20:32:48.412Z,23.60
2019-03-21T20:35:17.098Z,28.38
2019-03-21T20:37:46.091Z,31.17
2019-03-21T20:40:17.175Z,25.25
2019-03-21T20:42:45.709Z,23.87
2019-03-21T20:45:16.123Z,25.77
2019-03-21T20:47:44.753Z,36.40
2019-03-21T20:50:13.980Z,30.40
2019-03-21T20:52:42.600Z,30.37
2019-03-21T20:55:11.636Z,36.10
2019-03-21T20:57:40.192Z,53.20
2019-03-21T21:00:14.525Z,37.45
2019-03-21T21:02:43.130Z,46.28
2019-03-21T21:05:11.896Z,61.95
2019-03-21T21:07:40.417Z,59.33
2019-03-21T21:10:10.921Z,51.30
2019-03-21T21:12:39.455Z,59.27
2019-03-21T21:15:10.530Z,65.17
2019-03-21T21:17:39.106Z,60.12
2019-03-21T21:20:10.344Z,49.42
2019-03-21T21:22:38.911Z,51.25
2019-03-21T21:25:09.048Z,64.80
2019-03-21T21:27:48.799Z,66.28
2019-03-21T21:30:11.551Z,62.75
2019-03-21T21:32:40.090Z,58.33
2019-03-21T21:35:09.594Z,59.13
2019-03-21T21:37:38.604Z,59.75
2019-03-21T21:40:08.738Z,51.75
2019-03-21T21:42:37.301Z,51.92
2019-03-21T21:45:08.921Z,57.03
2019-03-21T21:47:37.637Z,68.57
2019-03-21T21:50:08.646Z,51.40
2019-03-21T21:52:41.987Z,51.63
2019-03-21T21:55:08.393Z,60.78
2019-03-21T21:57:37.064Z,57.17
2019-03-21T22:00:08.883Z,50.05
2019-03-21T22:02:37.537Z,51.88
2019-03-21T22:05:07.078Z,35.80
2019-03-21T22:07:35.695Z,47.85
2019-03-21T22:10:06.707Z,51.58
2019-03-21T22:12:35.515Z,64.60
2019-03-21T22:15:06.278Z,61.28
2019-03-21T22:17:34.824Z,59.65
2019-03-21T22:20:03.828Z,67.55
2019-03-21T22:22:32.398Z,62.40
2019-03-21T22:25:01.014Z,63.95
2019-03-21T22:27:29.540Z,69.45
2019-03-21T22:29:58.113Z,65.32
2019-03-21T22:32:34.464Z,63.60
2019-03-21T22:35:03.129Z,68.47
2019-03-21T22:37:31.595Z,60.67
2019-03-21T22:40:00.415Z,71.62
2019-03-21T22:42:29.047Z,68.85
2019-03-21T22:44:57.512Z,80.20
2019-03-21T22:47:26.009Z,92.70
2019-03-21T22:49:55.984Z,77.92
2019-03-21T22:52:24.521Z,88.30
2019-03-21T22:54:53.093Z,92.22
2019-03-21T22:57:21.563Z,80.95
2019-03-21T22:59:50.025Z,75.83
2019-03-21T23:02:18.567Z,78.28
2019-03-21T23:04:47.175Z,101.72
2019-03-21T23:07:15.714Z,66.40
2019-03-21T23:09:44.181Z,45.92
2019-03-21T23:12:12.733Z,42.50
2019-03-21T23:14:41.332Z,30.15
2019-03-21T23:17:09.975Z,30.52
2019-03-21T23:19:38.514Z,30.12
2019-03-21T23:22:07.137Z,27.15
2019-03-21T23:24:35.677Z,25.77
2019-03-21T23:27:04.455Z,26.77
2019-03-21T23:29:32.928Z,30.55
2019-03-21T23:32:01.465Z,27.82
2019-03-21T23:34:30.007Z,29.87
2019-03-21T23:36:58.674Z,28.75
2019-03-21T23:39:27.317Z,29.63
2019-03-21T23:41:55.886Z,30.77
2019-03-21T23:44:24.437Z,37.75
2019-03-21T23:46:52.943Z,37.17
2019-03-21T23:49:21.577Z,30.15
2019-03-21T23:51:50.191Z,35.65
2019-03-21T23:54:18.830Z,30.45
2019-03-21T23:56:47.375Z,30.55
2019-03-21T23:59:15.920Z,29.77
